Time;durP1;ratioP1;P1;durP2;ratioP2;P2;SDS_P1;SDS_P2;PMS_P1;PMS_P2;Temp;Humidity;BMP_temperature;BMP_pressure;BME280_temperature;BME280_humidity;BME280_pressure;Samples;Min_cycle;Max_cycle;Signal;HPM_P1;HPM_P2
2022/05/03 00:00:27;;;;;;;19.17;12.80;;;;;;;;;;5005728;28;20182;-81
2022/05/03 00:03:11;;;;;;;18.70;13.90;;;;;;;;;;5006272;28;20210;-81
2022/05/03 00:05:37;;;;;;;17.17;13.52;;;;;;;;;;5003161;28;20237;-81
2022/05/03 00:08:05;;;;;;;17.90;13.38;;;;;;;;;;5003974;28;20190;-81
2022/05/03 00:10:51;;;;;;;16.67;13.13;;;;;;;;;;4988747;28;20199;-81
2022/05/03 00:13:22;;;;;;;19.88;14.10;;;;;;;;;;4988989;28;20182;-81
2022/05/03 00:15:49;;;;;;;15.63;13.95;;;;;;;;;;5003580;28;20227;-81
2022/05/03 00:18:16;;;;;;;14.40;11.95;;;;;;;;;;4987986;28;20186;-81
2022/05/03 00:20:44;;;;;;;21.98;14.00;;;;;;;;;;5004795;28;20178;-81
2022/05/03 00:23:12;;;;;;;15.23;11.82;;;;;;;;;;5003917;28;20214;-81
2022/05/03 00:25:38;;;;;;;14.82;12.00;;;;;;;;;;5003445;28;20611;-81
2022/05/03 00:28:05;;;;;;;15.52;13.40;;;;;;;;;;5004094;28;20183;-81
2022/05/03 00:30:31;;;;;;;15.15;13.35;;;;;;;;;;5004618;28;20217;-81
2022/05/03 00:32:58;;;;;;;16.60;12.45;;;;;;;;;;5006771;28;20420;-81
2022/05/03 00:35:25;;;;;;;17.13;11.90;;;;;;;;;;4988115;28;20191;-81
2022/05/03 00:37:51;;;;;;;16.98;13.85;;;;;;;;;;5003599;28;20187;-81
2022/05/03 00:40:19;;;;;;;21.75;12.85;;;;;;;;;;5002898;28;20238;-82
2022/05/03 00:42:47;;;;;;;16.80;14.15;;;;;;;;;;5003694;28;20187;-81
2022/05/03 00:45:25;;;;;;;16.70;12.98;;;;;;;;;;5006292;28;20203;-81
2022/05/03 00:47:54;;;;;;;18.02;13.50;;;;;;;;;;5005140;28;20207;-81
2022/05/03 00:50:26;;;;;;;17.75;13.48;;;;;;;;;;5003423;28;20660;-81
2022/05/03 00:53:19;;;;;;;19.65;13.32;;;;;;;;;;5003185;28;20187;-81
2022/05/03 00:56:08;;;;;;;19.08;12.88;;;;;;;;;;4925685;29;20202;-81
2022/05/03 00:58:58;;;;;;;16.02;12.48;;;;;;;;;;4930086;29;20212;-80
2022/05/03 01:01:33;;;;;;;17.60;12.05;;;;;;;;;;4928924;29;20219;-81
2022/05/03 01:04:05;;;;;;;16.80;12.30;;;;;;;;;;4906286;29;20197;-81
2022/05/03 01:06:43;;;;;;;16.85;13.20;;;;;;;;;;4926178;29;20731;-81
2022/05/03 01:09:10;;;;;;;17.08;13.00;;;;;;;;;;4926320;29;20202;-81
2022/05/03 01:11:46;;;;;;;16.80;12.60;;;;;;;;;;4926204;29;20182;-81
2022/05/03 01:14:12;;;;;;;17.05;12.10;;;;;;;;;;4929784;29;20231;-81
2022/05/03 01:16:41;;;;;;;17.42;13.02;;;;;;;;;;4929768;29;20233;-81
2022/05/03 01:19:07;;;;;;;15.60;11.73;;;;;;;;;;4926816;29;20186;-81
2022/05/03 01:21:45;;;;;;;16.17;12.43;;;;;;;;;;4925439;29;20189;-81
2022/05/03 01:24:17;;;;;;;17.40;12.73;;;;;;;;;;4925591;29;20177;-81
2022/05/03 01:26:42;;;;;;;18.23;13.73;;;;;;;;;;4925573;29;20294;-81
2022/05/03 01:29:19;;;;;;;16.85;11.90;;;;;;;;;;4933884;29;20177;-82
2022/05/03 01:31:47;;;;;;;16.02;12.10;;;;;;;;;;4924953;28;20203;-81
2022/05/03 01:34:15;;;;;;;17.35;12.07;;;;;;;;;;4991189;28;20175;-81
2022/05/03 01:37:00;;;;;;;19.65;12.38;;;;;;;;;;4986663;28;20195;-82
2022/05/03 01:39:44;;;;;;;15.10;11.80;;;;;;;;;;5003441;28;20190;-81
2022/05/03 01:42:17;;;;;;;14.55;12.35;;;;;;;;;;4983719;28;20190;-81
2022/05/03 01:44:46;;;;;;;16.77;12.25;;;;;;;;;;5003811;28;20190;-81
2022/05/03 01:47:21;;;;;;;16.40;11.85;;;;;;;;;;4987311;28;20624;-82
2022/05/03 01:52:52;;;;;;;17.50;12.77;;;;;;;;;;5001891;28;20262;-81
2022/05/03 01:55:18;;;;;;;17.90;12.88;;;;;;;;;;4924934;29;20209;-81
2022/05/03 01:57:55;;;;;;;16.88;12.75;;;;;;;;;;4923742;29;20190;-81
2022/05/03 02:00:22;;;;;;;16.95;12.55;;;;;;;;;;4925031;29;20192;-81
2022/05/03 02:03:06;;;;;;;15.48;11.65;;;;;;;;;;4931306;29;20186;-81
2022/05/03 02:06:04;;;;;;;17.13;12.20;;;;;;;;;;4897600;29;20699;-82
2022/05/03 02:08:49;;;;;;;16.77;12.13;;;;;;;;;;4853933;29;20272;-81
2022/05/03 02:11:17;;;;;;;18.60;12.52;;;;;;;;;;4863200;29;20204;-82
2022/05/03 02:16:53;;;;;;;17.98;11.70;;;;;;;;;;4849990;29;20249;-82
2022/05/03 02:19:22;;;;;;;16.00;11.00;;;;;;;;;;4861362;29;20200;-81
2022/05/03 02:22:15;;;;;;;16.27;11.73;;;;;;;;;;4865075;29;20273;-81
2022/05/03 02:24:44;;;;;;;15.60;11.65;;;;;;;;;;4849588;29;20269;-82
2022/05/03 02:27:11;;;;;;;19.08;12.23;;;;;;;;;;4850533;29;20288;-82
2022/05/03 02:29:47;;;;;;;14.68;11.43;;;;;;;;;;4851110;29;20264;-82
2022/05/03 02:32:16;;;;;;;15.63;11.25;;;;;;;;;;4878861;29;20397;-82
2022/05/03 02:34:45;;;;;;;15.07;11.80;;;;;;;;;;4917272;29;20269;-82
2022/05/03 02:37:20;;;;;;;12.65;11.30;;;;;;;;;;4924300;29;20212;-82
2022/05/03 02:39:57;;;;;;;17.23;11.32;;;;;;;;;;4910245;29;20210;-82
2022/05/03 02:42:24;;;;;;;16.35;11.60;;;;;;;;;;4924450;29;20182;-82
2022/05/03 02:44:52;;;;;;;15.85;11.50;;;;;;;;;;4986910;28;20279;-82
2022/05/03 02:47:18;;;;;;;17.10;12.68;;;;;;;;;;4986181;28;20237;-82
2022/05/03 02:49:44;;;;;;;15.77;11.43;;;;;;;;;;4986765;28;20659;-82
2022/05/03 02:52:11;;;;;;;18.40;11.10;;;;;;;;;;5000271;28;20434;-82
2022/05/03 02:54:36;;;;;;;16.63;12.95;;;;;;;;;;4967366;28;20503;-82
2022/05/03 02:57:21;;;;;;;16.10;12.27;;;;;;;;;;5004277;28;20183;-82
2022/05/03 03:02:59;;;;;;;14.07;11.38;;;;;;;;;;5002740;28;20257;-82
2022/05/03 03:05:26;;;;;;;19.13;12.48;;;;;;;;;;4982691;28;20747;-82
2022/05/03 03:08:02;;;;;;;15.38;11.35;;;;;;;;;;5000816;28;20187;-82
2022/05/03 03:10:31;;;;;;;19.08;12.32;;;;;;;;;;4985617;28;20610;-82
2022/05/03 03:13:09;;;;;;;19.75;14.18;;;;;;;;;;5000918;28;20188;-82
2022/05/03 03:15:38;;;;;;;17.90;12.40;;;;;;;;;;5001098;28;20202;-82
2022/05/03 03:18:07;;;;;;;18.02;13.45;;;;;;;;;;5004501;28;20255;-82
2022/05/03 03:20:36;;;;;;;15.55;11.50;;;;;;;;;;4985334;28;20183;-82
2022/05/03 03:23:03;;;;;;;17.63;14.52;;;;;;;;;;4983317;28;20515;-82
2022/05/03 03:25:29;;;;;;;20.17;14.38;;;;;;;;;;4995917;28;20206;-82
2022/05/03 03:27:57;;;;;;;15.15;12.00;;;;;;;;;;5000656;28;20184;-82
2022/05/03 03:30:23;;;;;;;19.23;12.00;;;;;;;;;;4985664;28;20175;-82
2022/05/03 03:32:53;;;;;;;20.08;12.60;;;;;;;;;;5001740;28;20518;-82
2022/05/03 03:35:20;;;;;;;17.27;13.38;;;;;;;;;;4984768;28;20195;-82
2022/05/03 03:37:47;;;;;;;20.45;13.63;;;;;;;;;;5000916;28;20182;-83
2022/05/03 03:40:14;;;;;;;17.00;13.45;;;;;;;;;;4982772;28;20187;-82
2022/05/03 03:42:42;;;;;;;16.58;12.38;;;;;;;;;;4983189;28;20218;-83
2022/05/03 03:45:09;;;;;;;18.13;12.70;;;;;;;;;;4986814;28;20206;-82
2022/05/03 03:47:36;;;;;;;18.30;13.40;;;;;;;;;;4996906;28;20180;-82
2022/05/03 03:50:03;;;;;;;21.67;13.48;;;;;;;;;;4999568;28;20719;-82
2022/05/03 03:52:29;;;;;;;17.83;13.23;;;;;;;;;;4985211;28;20234;-82
2022/05/03 03:54:55;;;;;;;20.63;13.23;;;;;;;;;;5000505;28;20195;-82
2022/05/03 03:57:22;;;;;;;23.05;14.90;;;;;;;;;;4984896;28;20215;-82
2022/05/03 03:59:48;;;;;;;19.25;14.18;;;;;;;;;;5001721;28;20171;-82
2022/05/03 04:02:15;;;;;;;18.80;13.40;;;;;;;;;;4999934;28;20195;-82
2022/05/03 04:04:41;;;;;;;18.10;11.73;;;;;;;;;;4985367;28;20206;-82
2022/05/03 04:07:07;;;;;;;18.75;13.30;;;;;;;;;;4988832;28;20210;-82
2022/05/03 04:09:33;;;;;;;16.23;11.67;;;;;;;;;;5004383;28;20239;-82
2022/05/03 04:12:03;;;;;;;20.00;13.45;;;;;;;;;;5006960;28;20449;-82
2022/05/03 04:14:29;;;;;;;19.33;12.93;;;;;;;;;;5003693;28;20267;-82
2022/05/03 04:16:55;;;;;;;17.48;12.50;;;;;;;;;;5003166;28;20231;-82
2022/05/03 04:19:22;;;;;;;18.92;13.70;;;;;;;;;;4985357;28;20197;-82
2022/05/03 04:21:48;;;;;;;21.38;13.57;;;;;;;;;;4986219;28;20184;-82
2022/05/03 04:24:14;;;;;;;17.38;12.30;;;;;;;;;;5005920;28;20179;-82
2022/05/03 04:26:40;;;;;;;21.90;14.38;;;;;;;;;;5004175;28;20214;-82
2022/05/03 04:29:06;;;;;;;20.73;12.75;;;;;;;;;;4986015;28;20187;-82
2022/05/03 04:31:33;;;;;;;19.20;13.50;;;;;;;;;;4988157;28;20613;-82
2022/05/03 04:34:01;;;;;;;22.67;14.77;;;;;;;;;;5002891;28;20195;-82
2022/05/03 04:36:27;;;;;;;21.45;15.80;;;;;;;;;;4987525;28;20276;-82
2022/05/03 04:38:53;;;;;;;21.85;14.50;;;;;;;;;;5005731;28;20231;-82
2022/05/03 04:41:25;;;;;;;21.23;14.93;;;;;;;;;;5002794;28;20361;-82
2022/05/03 04:43:51;;;;;;;21.15;13.95;;;;;;;;;;4988179;28;20186;-82
2022/05/03 04:46:18;;;;;;;17.10;13.93;;;;;;;;;;5002821;28;20211;-81
2022/05/03 04:48:44;;;;;;;19.20;13.35;;;;;;;;;;5003753;28;20458;-82
2022/05/03 04:51:20;;;;;;;23.73;16.30;;;;;;;;;;4988577;28;20250;-82
2022/05/03 04:53:46;;;;;;;22.45;12.82;;;;;;;;;;5004425;28;20556;-82
2022/05/03 04:56:19;;;;;;;22.60;14.60;;;;;;;;;;4987605;28;20199;-82
2022/05/03 04:58:45;;;;;;;23.17;15.13;;;;;;;;;;5003267;28;20194;-82
2022/05/03 05:01:12;;;;;;;18.60;14.32;;;;;;;;;;4987760;28;20194;-82
2022/05/03 05:03:38;;;;;;;18.40;14.73;;;;;;;;;;4987612;28;20194;-82
2022/05/03 05:06:04;;;;;;;20.77;16.00;;;;;;;;;;5006376;28;20191;-82
2022/05/03 05:08:30;;;;;;;21.73;14.85;;;;;;;;;;5003229;28;20187;-82
2022/05/03 05:10:56;;;;;;;21.93;14.50;;;;;;;;;;5002168;28;20217;-82
2022/05/03 05:13:22;;;;;;;22.63;14.48;;;;;;;;;;5002601;28;20422;-83
2022/05/03 05:15:49;;;;;;;20.55;13.43;;;;;;;;;;4985255;28;20693;-83
2022/05/03 05:18:16;;;;;;;21.58;14.48;;;;;;;;;;5004421;28;20178;-82
2022/05/03 05:20:43;;;;;;;25.05;15.32;;;;;;;;;;4987921;28;20178;-82
2022/05/03 05:23:09;;;;;;;18.73;14.43;;;;;;;;;;5002215;28;20214;-82
2022/05/03 05:25:35;;;;;;;24.17;14.77;;;;;;;;;;4984635;28;20213;-82
2022/05/03 05:28:01;;;;;;;21.88;14.10;;;;;;;;;;4987329;28;20184;-82
2022/05/03 05:30:27;;;;;;;25.70;15.53;;;;;;;;;;4986427;28;20560;-82
2022/05/03 05:32:53;;;;;;;24.95;15.57;;;;;;;;;;5004093;28;20438;-82
2022/05/03 05:35:19;;;;;;;28.55;15.02;;;;;;;;;;5001843;28;20215;-82
2022/05/03 05:37:45;;;;;;;23.50;16.95;;;;;;;;;;4987615;28;20250;-82
2022/05/03 05:40:11;;;;;;;19.20;14.57;;;;;;;;;;5001907;28;20198;-82
2022/05/03 05:42:37;;;;;;;23.65;15.57;;;;;;;;;;4986493;28;20184;-82
2022/05/03 05:45:03;;;;;;;23.20;16.00;;;;;;;;;;5005679;28;20246;-83
2022/05/03 05:47:29;;;;;;;21.00;14.85;;;;;;;;;;5001992;28;20797;-82
2022/05/03 05:49:55;;;;;;;27.77;16.40;;;;;;;;;;5002420;28;20553;-82
2022/05/03 05:55:07;;;;;;;25.48;13.35;;;;;;;;;;5001878;28;20437;-82
2022/05/03 05:57:33;;;;;;;23.05;15.63;;;;;;;;;;5002774;28;20180;-82
2022/05/03 06:00:00;;;;;;;25.80;15.95;;;;;;;;;;5004485;28;20175;-82
2022/05/03 06:02:26;;;;;;;24.60;16.50;;;;;;;;;;5001278;28;20194;-82
2022/05/03 06:04:52;;;;;;;25.80;16.52;;;;;;;;;;5001109;28;20198;-82
2022/05/03 06:07:18;;;;;;;20.73;14.20;;;;;;;;;;5001569;28;20193;-82
2022/05/03 06:09:44;;;;;;;22.05;15.60;;;;;;;;;;5001914;28;20191;-82
2022/05/03 06:12:10;;;;;;;19.83;15.40;;;;;;;;;;4986913;28;20243;-81
2022/05/03 06:14:36;;;;;;;22.98;14.48;;;;;;;;;;5001840;28;20183;-82
2022/05/03 06:17:02;;;;;;;23.60;15.30;;;;;;;;;;5001382;28;20234;-81
2022/05/03 06:19:28;;;;;;;22.02;15.18;;;;;;;;;;4987014;28;20438;-82
2022/05/03 06:21:54;;;;;;;21.38;14.38;;;;;;;;;;4986719;28;20187;-82
2022/05/03 06:24:21;;;;;;;18.10;13.50;;;;;;;;;;4986602;28;20530;-82
2022/05/03 06:26:47;;;;;;;22.52;16.27;;;;;;;;;;5002384;28;20191;-81
2022/05/03 06:29:14;;;;;;;21.92;14.75;;;;;;;;;;4985992;28;20213;-82
2022/05/03 06:31:42;;;;;;;23.80;13.73;;;;;;;;;;4986458;28;20214;-82
2022/05/03 06:34:08;;;;;;;19.90;14.85;;;;;;;;;;5000649;28;20183;-81
2022/05/03 06:36:35;;;;;;;23.45;15.95;;;;;;;;;;5001932;28;20228;-82
2022/05/03 06:39:01;;;;;;;20.23;14.93;;;;;;;;;;5004411;28;20213;-82
2022/05/03 06:41:27;;;;;;;31.52;17.42;;;;;;;;;;5000721;28;20202;-81
2022/05/03 06:43:56;;;;;;;22.67;15.00;;;;;;;;;;4985407;28;20191;-82
2022/05/03 06:46:22;;;;;;;19.20;14.68;;;;;;;;;;5001269;28;20203;-82
2022/05/03 06:48:48;;;;;;;22.88;15.05;;;;;;;;;;5001094;28;20197;-82
2022/05/03 06:51:14;;;;;;;24.77;15.15;;;;;;;;;;4986237;28;20175;-82
2022/05/03 06:53:41;;;;;;;20.90;15.18;;;;;;;;;;4972575;28;20189;-82
2022/05/03 06:56:07;;;;;;;24.98;17.05;;;;;;;;;;4996855;28;20187;-82
2022/05/03 06:58:33;;;;;;;21.50;15.15;;;;;;;;;;5000604;28;20194;-82
2022/05/03 07:01:08;;;;;;;22.38;16.15;;;;;;;;;;4986098;28;20187;-83
2022/05/03 07:03:34;;;;;;;20.90;14.68;;;;;;;;;;5000912;28;20250;-82
2022/05/03 07:06:00;;;;;;;24.20;16.42;;;;;;;;;;5003918;28;20226;-83
2022/05/03 07:08:26;;;;;;;23.38;16.80;;;;;;;;;;5000577;28;20190;-83
2022/05/03 07:10:52;;;;;;;31.50;17.13;;;;;;;;;;4982872;28;20187;-84
2022/05/03 07:13:23;;;;;;;23.50;17.07;;;;;;;;;;5000215;28;20485;-82
2022/05/03 07:15:59;;;;;;;24.40;15.35;;;;;;;;;;4983705;28;20474;-82
2022/05/03 07:24:15;;;;;;;23.23;15.15;;;;;;;;;;4921496;29;20173;-82
2022/05/03 07:26:41;;;;;;;26.88;17.98;;;;;;;;;;4924432;29;20238;-81
2022/05/03 07:29:07;;;;;;;23.23;16.23;;;;;;;;;;4905243;29;20238;-81
2022/05/03 07:31:33;;;;;;;19.90;14.75;;;;;;;;;;4940788;29;20515;-83
2022/05/03 07:33:59;;;;;;;20.80;14.27;;;;;;;;;;4923478;29;20191;-82
2022/05/03 07:36:28;;;;;;;18.85;15.23;;;;;;;;;;4944254;29;20212;-83
2022/05/03 07:38:54;;;;;;;18.08;14.60;;;;;;;;;;4943919;29;20244;-82
2022/05/03 07:41:20;;;;;;;19.83;13.53;;;;;;;;;;4945163;29;20205;-82
2022/05/03 07:43:46;;;;;;;20.83;13.90;;;;;;;;;;4930528;29;20446;-83
2022/05/03 07:46:12;;;;;;;19.00;13.37;;;;;;;;;;4946744;29;20468;-84
2022/05/03 07:48:38;;;;;;;20.60;13.68;;;;;;;;;;4931370;29;20436;-83
2022/05/03 07:51:04;;;;;;;17.33;13.35;;;;;;;;;;4931474;29;20604;-84
2022/05/03 07:53:30;;;;;;;17.95;13.43;;;;;;;;;;4946026;29;20256;-84
2022/05/03 07:55:56;;;;;;;19.45;13.25;;;;;;;;;;4993760;28;20243;-85
2022/05/03 07:58:23;;;;;;;15.55;12.23;;;;;;;;;;5004437;28;20175;-84
2022/05/03 08:00:49;;;;;;;16.15;12.43;;;;;;;;;;4987212;28;20191;-81
2022/05/03 08:03:16;;;;;;;17.27;12.90;;;;;;;;;;5006340;28;20210;-83
2022/05/03 08:05:43;;;;;;;14.85;12.35;;;;;;;;;;5006274;28;20199;-81
2022/05/03 08:08:09;;;;;;;17.08;12.18;;;;;;;;;;4988791;28;20187;-82
2022/05/03 08:10:35;;;;;;;19.98;14.00;;;;;;;;;;5003092;28;20191;-85
2022/05/03 08:13:01;;;;;;;17.17;13.05;;;;;;;;;;5003509;28;20196;-85
2022/05/03 08:15:27;;;;;;;20.37;12.60;;;;;;;;;;4988202;28;20189;-82
2022/05/03 08:17:53;;;;;;;14.68;11.32;;;;;;;;;;5005822;28;20425;-83
2022/05/03 08:20:19;;;;;;;16.70;12.10;;;;;;;;;;5003460;28;20201;-83
2022/05/03 08:22:45;;;;;;;20.42;11.60;;;;;;;;;;5003224;28;20195;-83
2022/05/03 08:25:11;;;;;;;15.25;11.63;;;;;;;;;;5002903;28;20247;-83
2022/05/03 08:27:38;;;;;;;18.17;12.38;;;;;;;;;;5003878;28;20196;-81
2022/05/03 08:30:08;;;;;;;13.70;11.40;;;;;;;;;;4974857;28;20169;-85
2022/05/03 08:32:34;;;;;;;17.42;12.20;;;;;;;;;;4991624;28;20660;-83
2022/05/03 08:35:00;;;;;;;17.63;11.07;;;;;;;;;;4997902;28;20190;-83
2022/05/03 08:42:56;;;;;;;18.90;12.00;;;;;;;;;;4990313;28;20252;-84
2022/05/03 08:45:24;;;;;;;16.02;12.23;;;;;;;;;;5005392;28;20290;-85
2022/05/03 08:47:50;;;;;;;16.48;12.43;;;;;;;;;;4987790;28;20248;-84
2022/05/03 08:50:20;;;;;;;13.70;10.55;;;;;;;;;;5002933;28;20189;-83
2022/05/03 08:52:48;;;;;;;15.68;13.32;;;;;;;;;;5001252;28;20190;-82
2022/05/03 08:55:15;;;;;;;16.20;11.40;;;;;;;;;;5002523;28;20195;-83
2022/05/03 08:57:44;;;;;;;18.38;12.45;;;;;;;;;;5003002;28;20201;-85
2022/05/03 09:00:11;;;;;;;12.52;11.10;;;;;;;;;;5006575;28;20236;-82
2022/05/03 09:02:44;;;;;;;13.43;11.68;;;;;;;;;;5005396;28;20177;-85
2022/05/03 09:05:11;;;;;;;16.90;12.18;;;;;;;;;;5002461;28;20187;-83
2022/05/03 09:07:37;;;;;;;14.18;10.85;;;;;;;;;;5002499;28;20179;-86
2022/05/03 09:10:16;;;;;;;16.83;12.45;;;;;;;;;;5002595;28;20183;-86
2022/05/03 09:12:44;;;;;;;15.50;11.23;;;;;;;;;;4987712;28;20477;-87
2022/05/03 09:15:11;;;;;;;13.95;10.82;;;;;;;;;;5006444;28;20167;-84
2022/05/03 09:17:37;;;;;;;14.38;11.30;;;;;;;;;;4986658;28;20225;-89
2022/05/03 09:23:46;;;;;;;16.00;12.30;;;;;;;;;;5002786;28;20247;-86
2022/05/03 09:25:47;;;;;;;13.20;10.65;;;;;;;;;;5002548;28;20504;-89
2022/05/03 09:28:13;;;;;;;13.75;10.43;;;;;;;;;;5002494;28;20260;-84
2022/05/03 09:30:47;;;;;;;13.38;9.90;;;;;;;;;;5003213;28;20183;-86
2022/05/03 09:33:17;;;;;;;11.40;9.02;;;;;;;;;;5002678;28;20194;-86
2022/05/03 09:35:42;;;;;;;11.43;9.25;;;;;;;;;;5005484;28;20182;-89
2022/05/03 09:38:08;;;;;;;10.73;9.13;;;;;;;;;;5002295;28;20184;-88
2022/05/03 09:40:35;;;;;;;11.13;9.90;;;;;;;;;;4988079;28;20447;-86
2022/05/03 09:43:02;;;;;;;10.90;8.25;;;;;;;;;;5002504;28;20478;-91
2022/05/03 09:45:28;;;;;;;9.95;8.32;;;;;;;;;;5003836;28;20236;-85
2022/05/03 09:47:56;;;;;;;11.60;8.98;;;;;;;;;;5004792;28;20181;-84
2022/05/03 09:50:27;;;;;;;9.07;8.02;;;;;;;;;;5002070;28;20189;-84
2022/05/03 09:52:53;;;;;;;9.93;8.85;;;;;;;;;;5001617;28;20180;-84
2022/05/03 09:55:30;;;;;;;9.75;8.75;;;;;;;;;;4989153;28;20213;-89
2022/05/03 09:57:57;;;;;;;14.35;9.48;;;;;;;;;;5003921;28;20197;-89
2022/05/03 10:00:23;;;;;;;11.95;8.75;;;;;;;;;;4988228;28;20173;-88
2022/05/03 10:02:49;;;;;;;10.57;9.25;;;;;;;;;;5004770;28;20175;-82
2022/05/03 10:05:16;;;;;;;10.68;8.45;;;;;;;;;;5002269;28;20211;-83
2022/05/03 10:07:45;;;;;;;8.63;7.70;;;;;;;;;;4984210;28;20211;-85
2022/05/03 10:10:12;;;;;;;11.02;8.57;;;;;;;;;;5001786;28;20218;-83
2022/05/03 10:12:38;;;;;;;10.15;8.93;;;;;;;;;;4984878;28;20194;-82
2022/05/03 10:15:05;;;;;;;10.75;8.50;;;;;;;;;;5004708;28;20217;-83
2022/05/03 10:20:46;;;;;;;9.40;8.50;;;;;;;;;;4986003;28;20198;-83
2022/05/03 10:23:21;;;;;;;9.07;8.05;;;;;;;;;;4981668;28;20180;-83
2022/05/03 10:25:47;;;;;;;10.35;8.38;;;;;;;;;;4985169;28;20258;-81
2022/05/03 10:28:14;;;;;;;8.63;7.80;;;;;;;;;;4964168;28;20192;-84
2022/05/03 10:31:00;;;;;;;8.27;7.45;;;;;;;;;;4972950;28;20436;-83
2022/05/03 10:33:28;;;;;;;8.73;7.80;;;;;;;;;;4984092;28;20247;-83
2022/05/03 10:35:54;;;;;;;10.50;9.13;;;;;;;;;;4970090;28;20182;-84
2022/05/03 10:38:39;;;;;;;11.10;8.65;;;;;;;;;;4980410;28;20201;-88
2022/05/03 10:41:08;;;;;;;13.45;8.00;;;;;;;;;;4978637;28;20198;-85
2022/05/03 10:43:35;;;;;;;10.15;8.75;;;;;;;;;;4985733;28;20186;-89
2022/05/03 10:46:11;;;;;;;9.70;8.18;;;;;;;;;;4985683;28;20217;-86
2022/05/03 10:48:37;;;;;;;10.13;7.47;;;;;;;;;;4985712;28;20219;-86
2022/05/03 10:51:04;;;;;;;9.13;8.23;;;;;;;;;;4968525;28;20177;-85
2022/05/03 10:53:32;;;;;;;11.25;7.68;;;;;;;;;;4984308;28;20246;-84
2022/05/03 10:56:05;;;;;;;11.35;7.65;;;;;;;;;;4985080;28;20185;-88
2022/05/03 10:58:33;;;;;;;11.45;7.60;;;;;;;;;;4962296;28;20189;-87
2022/05/03 11:01:03;;;;;;;7.65;6.85;;;;;;;;;;4985751;28;20192;-85
2022/05/03 11:03:30;;;;;;;10.88;8.43;;;;;;;;;;4983887;28;20610;-82
2022/05/03 11:06:14;;;;;;;9.43;7.07;;;;;;;;;;4984379;28;20204;-84
2022/05/03 11:11:44;;;;;;;9.77;7.45;;;;;;;;;;4985493;28;20286;-87
2022/05/03 11:14:21;;;;;;;7.43;6.72;;;;;;;;;;4985560;28;20328;-84
2022/05/03 11:16:50;;;;;;;9.93;5.68;;;;;;;;;;4994071;28;20234;-86
2022/05/03 11:19:17;;;;;;;6.80;6.15;;;;;;;;;;4985993;28;20183;-83
2022/05/03 11:21:45;;;;;;;6.78;6.07;;;;;;;;;;5000720;28;20188;-87
2022/05/03 11:24:30;;;;;;;8.20;6.70;;;;;;;;;;4986111;28;20184;-84
2022/05/03 11:26:57;;;;;;;9.85;6.95;;;;;;;;;;5002812;28;20692;-86
2022/05/03 11:29:30;;;;;;;7.93;5.85;;;;;;;;;;5001027;28;20671;-90
2022/05/03 11:31:58;;;;;;;9.73;7.15;;;;;;;;;;4986039;28;20264;-87
2022/05/03 11:34:24;;;;;;;7.47;6.40;;;;;;;;;;4999608;28;20212;-84
2022/05/03 11:36:50;;;;;;;6.93;5.33;;;;;;;;;;4984557;28;20208;-88
2022/05/03 11:39:20;;;;;;;10.73;5.90;;;;;;;;;;4985702;28;20434;-86
2022/05/03 11:41:47;;;;;;;7.15;6.13;;;;;;;;;;4986337;28;20190;-83
2022/05/03 11:44:13;;;;;;;6.72;6.00;;;;;;;;;;5000428;28;20188;-83
2022/05/03 11:46:40;;;;;;;8.18;6.00;;;;;;;;;;4985300;28;20235;-90
2022/05/03 11:49:07;;;;;;;6.00;5.43;;;;;;;;;;4985663;28;20180;-85
2022/05/03 11:57:10;;;;;;;4.35;3.95;;;;;;;;;;4994470;28;20235;-84
2022/05/03 11:59:36;;;;;;;4.35;3.95;;;;;;;;;;5002628;28;20273;-80
2022/05/03 12:02:22;;;;;;;5.25;4.75;;;;;;;;;;4999521;28;20244;-84
2022/05/03 12:05:02;;;;;;;5.00;4.50;;;;;;;;;;4998485;28;20190;-82
2022/05/03 12:07:28;;;;;;;5.88;5.13;;;;;;;;;;4985383;28;20194;-82
2022/05/03 12:09:54;;;;;;;7.95;4.55;;;;;;;;;;4984665;28;20190;-85
2022/05/03 12:15:25;;;;;;;6.32;4.25;;;;;;;;;;4959968;28;20181;-84
2022/05/03 12:17:52;;;;;;;4.87;3.83;;;;;;;;;;4952256;29;20721;-82
2022/05/03 12:20:18;;;;;;;4.43;4.00;;;;;;;;;;4962936;28;20442;-82
2022/05/03 12:22:44;;;;;;;4.83;4.27;;;;;;;;;;4976871;28;20448;-82
2022/05/03 12:25:10;;;;;;;4.23;3.50;;;;;;;;;;4952686;28;20469;-85
2022/05/03 12:27:36;;;;;;;2.87;2.60;;;;;;;;;;4967838;28;20501;-84
2022/05/03 12:30:11;;;;;;;3.40;3.10;;;;;;;;;;4985609;28;20417;-84
2022/05/03 12:32:39;;;;;;;4.53;3.93;;;;;;;;;;4973576;28;20427;-84
2022/05/03 12:35:05;;;;;;;3.13;2.73;;;;;;;;;;4982195;28;20847;-83
2022/05/03 12:37:31;;;;;;;4.77;4.37;;;;;;;;;;4981969;28;20451;-83
2022/05/03 12:40:01;;;;;;;4.33;3.67;;;;;;;;;;4955370;28;20417;-85
2022/05/03 12:42:27;;;;;;;5.20;4.03;;;;;;;;;;4984270;28;21018;-90
2022/05/03 12:44:55;;;;;;;4.23;3.90;;;;;;;;;;4971495;28;21200;-87
2022/05/03 12:47:22;;;;;;;3.47;3.20;;;;;;;;;;4972844;28;20965;-83
2022/05/03 12:49:48;;;;;;;4.30;3.23;;;;;;;;;;4961879;28;20445;-84
2022/05/03 12:52:15;;;;;;;4.27;3.90;;;;;;;;;;4995075;28;20414;-82
2022/05/03 12:54:42;;;;;;;4.63;3.97;;;;;;;;;;5003041;28;20514;-81
2022/05/03 12:59:55;;;;;;;4.70;4.30;;;;;;;;;;5004995;28;20391;-85
2022/05/03 13:02:22;;;;;;;5.37;4.87;;;;;;;;;;5003013;28;20446;-84
2022/05/03 13:04:48;;;;;;;3.97;3.57;;;;;;;;;;5002426;28;20492;-81
2022/05/03 13:07:14;;;;;;;4.80;3.67;;;;;;;;;;5002425;28;20497;-81
2022/05/03 13:09:40;;;;;;;3.30;3.10;;;;;;;;;;5000821;28;20458;-82
2022/05/03 13:12:06;;;;;;;5.43;4.00;;;;;;;;;;5006533;28;20393;-86
2022/05/03 13:14:33;;;;;;;4.33;3.67;;;;;;;;;;5002616;28;20514;-83
2022/05/03 13:16:59;;;;;;;3.63;3.33;;;;;;;;;;5002314;28;20884;-84
2022/05/03 13:19:26;;;;;;;3.53;3.23;;;;;;;;;;5002386;28;20443;-82
2022/05/03 13:21:54;;;;;;;2.80;2.60;;;;;;;;;;5000660;28;20655;-82
2022/05/03 13:24:21;;;;;;;3.40;3.10;;;;;;;;;;5005371;28;20488;-82
2022/05/03 13:26:47;;;;;;;3.57;3.13;;;;;;;;;;5003034;28;20466;-81
2022/05/03 13:29:15;;;;;;;3.50;3.20;;;;;;;;;;5000103;28;20448;-89
2022/05/03 13:31:41;;;;;;;5.57;3.00;;;;;;;;;;5003094;28;20447;-83
2022/05/03 13:34:08;;;;;;;3.27;2.97;;;;;;;;;;5001821;28;20440;-81
2022/05/03 13:42:04;;;;;;;4.77;3.77;;;;;;;;;;4984424;28;20962;-81
2022/05/03 13:44:31;;;;;;;4.30;3.50;;;;;;;;;;4999677;28;20449;-81
2022/05/03 13:46:58;;;;;;;2.87;2.67;;;;;;;;;;5001666;28;20504;-82
2022/05/03 13:49:24;;;;;;;3.43;3.17;;;;;;;;;;5002463;28;20433;-81
2022/05/03 13:51:50;;;;;;;3.13;2.93;;;;;;;;;;5000291;28;20480;-82
2022/05/03 13:54:16;;;;;;;3.73;3.43;;;;;;;;;;5004589;28;20395;-86
2022/05/03 13:56:42;;;;;;;3.33;3.07;;;;;;;;;;4987451;28;20503;-88
2022/05/03 13:59:08;;;;;;;4.07;3.70;;;;;;;;;;4986943;28;20499;-86
2022/05/03 14:01:34;;;;;;;2.80;2.60;;;;;;;;;;4984513;28;20410;-83
2022/05/03 14:04:02;;;;;;;5.87;4.07;;;;;;;;;;5001472;28;20538;-80
2022/05/03 14:06:28;;;;;;;4.03;3.70;;;;;;;;;;5002980;28;20960;-81
2022/05/03 14:08:55;;;;;;;3.80;3.50;;;;;;;;;;5004061;28;20415;-80
2022/05/03 14:11:21;;;;;;;3.70;3.40;;;;;;;;;;5001117;28;20481;-82
2022/05/03 14:13:47;;;;;;;3.53;3.23;;;;;;;;;;4987040;28;20914;-80
2022/05/03 14:16:16;;;;;;;5.70;3.97;;;;;;;;;;5000999;28;21054;-81
2022/05/03 14:18:42;;;;;;;3.87;3.53;;;;;;;;;;5001644;28;20413;-82
2022/05/03 14:21:08;;;;;;;3.47;3.17;;;;;;;;;;4987635;28;20415;-83
2022/05/03 14:23:35;;;;;;;3.97;2.97;;;;;;;;;;5001264;28;20449;-79
2022/05/03 14:26:01;;;;;;;3.07;2.87;;;;;;;;;;4983061;28;20472;-79
2022/05/03 14:28:27;;;;;;;2.80;2.60;;;;;;;;;;5001638;28;20434;-79
2022/05/03 14:30:53;;;;;;;4.00;3.60;;;;;;;;;;5001376;28;20451;-82
2022/05/03 14:33:19;;;;;;;3.07;2.47;;;;;;;;;;5003955;28;20418;-86
2022/05/03 14:35:46;;;;;;;2.53;2.33;;;;;;;;;;4987039;28;20422;-81
2022/05/03 14:38:12;;;;;;;3.05;2.72;;;;;;;;;;4986175;28;20417;-89
2022/05/03 14:40:40;;;;;;;2.67;2.37;;;;;;;;;;5000862;28;20213;-86
2022/05/03 14:43:06;;;;;;;2.77;2.57;;;;;;;;;;4986447;28;20462;-81
2022/05/03 14:45:34;;;;;;;2.28;2.08;;;;;;;;;;4984829;28;20471;-85
2022/05/03 14:48:00;;;;;;;3.42;1.95;;;;;;;;;;4987046;28;20179;-82
2022/05/03 14:50:28;;;;;;;3.50;2.60;;;;;;;;;;4986041;28;20262;-80
2022/05/03 14:52:54;;;;;;;3.25;2.42;;;;;;;;;;4998614;28;20772;-82
2022/05/03 14:55:20;;;;;;;2.57;2.20;;;;;;;;;;5000653;28;20198;-82
2022/05/03 15:02:51;;;;;;;4.10;2.90;;;;;;;;;;5002429;28;25016;-82
2022/05/03 15:03:25;;;;;;;2.47;2.20;;;;;;;;;;5001361;28;20406;-86
2022/05/03 15:05:51;;;;;;;2.30;2.10;;;;;;;;;;5001562;28;20461;-82
2022/05/03 15:08:17;;;;;;;3.47;2.37;;;;;;;;;;5000638;28;20191;-82
2022/05/03 15:10:43;;;;;;;2.30;2.10;;;;;;;;;;4980682;28;20446;-85
2022/05/03 15:13:12;;;;;;;3.27;2.67;;;;;;;;;;5001317;28;20434;-81
2022/05/03 15:15:38;;;;;;;3.15;2.60;;;;;;;;;;4968080;28;20441;-82
2022/05/03 15:18:04;;;;;;;2.73;2.50;;;;;;;;;;5003973;28;20194;-81
2022/05/03 15:20:32;;;;;;;4.50;2.90;;;;;;;;;;5000636;28;20441;-81
2022/05/03 15:25:44;;;;;;;3.47;2.15;;;;;;;;;;5000196;28;20221;-84
2022/05/03 15:28:11;;;;;;;2.55;2.35;;;;;;;;;;4985410;28;20734;-80